sensor_id;sensor_type;location;lat;lon;timestamp;P1;durP1;ratioP1;P2;durP2;ratioP2
54845;SDS011;53889;50.084;8.646;2023-02-22T00:00:29;26.35;;;13.40;;
54845;SDS011;53889;50.084;8.646;2023-02-22T00:03:08;25.83;;;13.35;;
54845;SDS011;53889;50.084;8.646;2023-02-22T00:05:37;26.27;;;13.48;;
54845;SDS011;53889;50.084;8.646;2023-02-22T00:08:04;26.48;;;12.90;;
54845;SDS011;53889;50.084;8.646;2023-02-22T00:10:34;23.10;;;11.93;;
54845;SDS011;53889;50.084;8.646;2023-02-22T00:13:03;20.88;;;12.10;;
54845;SDS011;53889;50.084;8.646;2023-02-22T00:15:31;23.20;;;11.60;;
54845;SDS011;53889;50.084;8.646;2023-02-22T00:17:58;23.10;;;12.23;;
54845;SDS011;53889;50.084;8.646;2023-02-22T00:20:25;23.02;;;12.48;;
54845;SDS011;53889;50.084;8.646;2023-02-22T00:22:54;20.00;;;12.57;;
54845;SDS011;53889;50.084;8.646;2023-02-22T00:25:21;21.50;;;11.98;;
54845;SDS011;53889;50.084;8.646;2023-02-22T00:27:50;20.95;;;11.50;;
54845;SDS011;53889;50.084;8.646;2023-02-22T00:30:18;21.75;;;12.00;;
54845;SDS011;53889;50.084;8.646;2023-02-22T00:32:47;23.40;;;12.50;;
54845;SDS011;53889;50.084;8.646;2023-02-22T00:35:15;21.73;;;11.65;;
54845;SDS011;53889;50.084;8.646;2023-02-22T00:37:45;19.63;;;11.20;;
54845;SDS011;53889;50.084;8.646;2023-02-22T00:40:16;22.48;;;11.30;;
54845;SDS011;53889;50.084;8.646;2023-02-22T00:42:45;23.55;;;10.75;;
54845;SDS011;53889;50.084;8.646;2023-02-22T00:45:13;16.45;;;9.95;;
54845;SDS011;53889;50.084;8.646;2023-02-22T00:47:42;18.13;;;10.95;;
54845;SDS011;53889;50.084;8.646;2023-02-22T00:50:09;21.55;;;11.25;;
54845;SDS011;53889;50.084;8.646;2023-02-22T00:52:37;20.17;;;11.35;;
54845;SDS011;53889;50.084;8.646;2023-02-22T00:55:05;20.52;;;11.13;;
54845;SDS011;53889;50.084;8.646;2023-02-22T00:57:34;23.42;;;11.32;;
54845;SDS011;53889;50.084;8.646;2023-02-22T01:00:03;20.83;;;11.02;;
54845;SDS011;53889;50.084;8.646;2023-02-22T01:05:04;18.83;;;10.65;;
54845;SDS011;53889;50.084;8.646;2023-02-22T01:07:31;18.27;;;10.07;;
54845;SDS011;53889;50.084;8.646;2023-02-22T01:09:58;21.55;;;10.65;;
54845;SDS011;53889;50.084;8.646;2023-02-22T01:12:26;21.17;;;11.18;;
54845;SDS011;53889;50.084;8.646;2023-02-22T01:14:54;22.65;;;10.50;;
54845;SDS011;53889;50.084;8.646;2023-02-22T01:17:22;20.55;;;10.75;;
54845;SDS011;53889;50.084;8.646;2023-02-22T01:19:49;25.23;;;10.88;;
54845;SDS011;53889;50.084;8.646;2023-02-22T01:22:16;19.40;;;11.25;;
54845;SDS011;53889;50.084;8.646;2023-02-22T01:24:45;20.25;;;9.98;;
54845;SDS011;53889;50.084;8.646;2023-02-22T01:27:12;20.98;;;10.75;;
54845;SDS011;53889;50.084;8.646;2023-02-22T01:29:39;20.08;;;10.38;;
54845;SDS011;53889;50.084;8.646;2023-02-22T01:32:07;18.67;;;10.90;;
54845;SDS011;53889;50.084;8.646;2023-02-22T01:34:36;22.98;;;11.50;;
54845;SDS011;53889;50.084;8.646;2023-02-22T01:37:03;23.27;;;11.75;;
54845;SDS011;53889;50.084;8.646;2023-02-22T01:39:30;21.13;;;10.65;;
54845;SDS011;53889;50.084;8.646;2023-02-22T01:41:57;22.13;;;11.27;;
54845;SDS011;53889;50.084;8.646;2023-02-22T01:44:27;22.70;;;11.75;;
54845;SDS011;53889;50.084;8.646;2023-02-22T01:46:57;22.83;;;11.38;;
54845;SDS011;53889;50.084;8.646;2023-02-22T01:49:29;20.38;;;11.50;;
54845;SDS011;53889;50.084;8.646;2023-02-22T01:52:02;19.67;;;10.48;;
54845;SDS011;53889;50.084;8.646;2023-02-22T01:54:34;23.95;;;13.32;;
54845;SDS011;53889;50.084;8.646;2023-02-22T01:57:05;17.88;;;10.68;;
54845;SDS011;53889;50.084;8.646;2023-02-22T01:59:38;18.60;;;10.48;;
54845;SDS011;53889;50.084;8.646;2023-02-22T02:02:09;15.82;;;9.82;;
54845;SDS011;53889;50.084;8.646;2023-02-22T02:04:38;17.58;;;10.30;;
54845;SDS011;53889;50.084;8.646;2023-02-22T02:07:07;18.42;;;10.98;;
54845;SDS011;53889;50.084;8.646;2023-02-22T02:09:38;18.60;;;10.80;;
54845;SDS011;53889;50.084;8.646;2023-02-22T02:12:10;18.35;;;10.77;;
54845;SDS011;53889;50.084;8.646;2023-02-22T02:14:39;18.42;;;10.52;;
54845;SDS011;53889;50.084;8.646;2023-02-22T02:17:07;17.77;;;10.05;;
54845;SDS011;53889;50.084;8.646;2023-02-22T02:19:40;19.60;;;10.43;;
54845;SDS011;53889;50.084;8.646;2023-02-22T02:22:20;17.80;;;10.77;;
54845;SDS011;53889;50.084;8.646;2023-02-22T02:24:59;19.92;;;10.98;;
54845;SDS011;53889;50.084;8.646;2023-02-22T02:30:40;19.92;;;10.88;;
54845;SDS011;53889;50.084;8.646;2023-02-22T02:33:17;16.55;;;10.02;;
54845;SDS011;53889;50.084;8.646;2023-02-22T02:35:55;19.52;;;10.73;;
54845;SDS011;53889;50.084;8.646;2023-02-22T02:38:29;18.77;;;10.32;;
54845;SDS011;53889;50.084;8.646;2023-02-22T02:41:02;15.15;;;9.88;;
54845;SDS011;53889;50.084;8.646;2023-02-22T02:43:36;15.95;;;10.32;;
54845;SDS011;53889;50.084;8.646;2023-02-22T02:46:08;18.20;;;10.50;;
54845;SDS011;53889;50.084;8.646;2023-02-22T02:48:42;20.65;;;10.18;;
54845;SDS011;53889;50.084;8.646;2023-02-22T02:51:14;17.05;;;10.65;;
54845;SDS011;53889;50.084;8.646;2023-02-22T02:53:43;16.92;;;10.57;;
54845;SDS011;53889;50.084;8.646;2023-02-22T02:56:13;15.00;;;10.23;;
54845;SDS011;53889;50.084;8.646;2023-02-22T02:58:43;18.58;;;10.13;;
54845;SDS011;53889;50.084;8.646;2023-02-22T03:01:14;15.98;;;10.32;;
54845;SDS011;53889;50.084;8.646;2023-02-22T03:03:59;18.57;;;11.20;;
54845;SDS011;53889;50.084;8.646;2023-02-22T03:06:48;15.80;;;9.77;;
54845;SDS011;53889;50.084;8.646;2023-02-22T03:09:25;16.10;;;10.15;;
54845;SDS011;53889;50.084;8.646;2023-02-22T03:12:04;18.92;;;10.95;;
54845;SDS011;53889;50.084;8.646;2023-02-22T03:14:39;17.40;;;10.73;;
54845;SDS011;53889;50.084;8.646;2023-02-22T03:17:13;15.20;;;10.32;;
54845;SDS011;53889;50.084;8.646;2023-02-22T03:19:49;17.05;;;10.30;;
54845;SDS011;53889;50.084;8.646;2023-02-22T03:22:19;15.63;;;9.77;;
54845;SDS011;53889;50.084;8.646;2023-02-22T03:24:53;17.00;;;10.10;;
54845;SDS011;53889;50.084;8.646;2023-02-22T03:27:30;16.98;;;9.93;;
54845;SDS011;53889;50.084;8.646;2023-02-22T03:30:04;15.63;;;10.35;;
54845;SDS011;53889;50.084;8.646;2023-02-22T03:32:36;16.52;;;9.73;;
54845;SDS011;53889;50.084;8.646;2023-02-22T03:35:11;14.48;;;9.82;;
54845;SDS011;53889;50.084;8.646;2023-02-22T03:37:42;17.50;;;10.30;;
54845;SDS011;53889;50.084;8.646;2023-02-22T03:40:13;17.60;;;10.57;;
54845;SDS011;53889;50.084;8.646;2023-02-22T03:42:45;15.25;;;10.18;;
54845;SDS011;53889;50.084;8.646;2023-02-22T03:45:16;16.83;;;9.90;;
54845;SDS011;53889;50.084;8.646;2023-02-22T03:47:48;16.95;;;9.98;;
54845;SDS011;53889;50.084;8.646;2023-02-22T03:50:27;16.30;;;10.38;;
54845;SDS011;53889;50.084;8.646;2023-02-22T03:52:55;16.95;;;10.23;;
54845;SDS011;53889;50.084;8.646;2023-02-22T03:55:26;15.70;;;10.80;;
54845;SDS011;53889;50.084;8.646;2023-02-22T03:57:55;17.60;;;10.30;;
54845;SDS011;53889;50.084;8.646;2023-02-22T04:00:27;17.45;;;10.40;;
54845;SDS011;53889;50.084;8.646;2023-02-22T04:02:56;16.63;;;11.38;;
54845;SDS011;53889;50.084;8.646;2023-02-22T04:05:23;18.13;;;11.73;;
54845;SDS011;53889;50.084;8.646;2023-02-22T04:07:52;18.33;;;11.25;;
54845;SDS011;53889;50.084;8.646;2023-02-22T04:10:19;18.85;;;12.13;;
54845;SDS011;53889;50.084;8.646;2023-02-22T04:12:48;17.92;;;11.77;;
54845;SDS011;53889;50.084;8.646;2023-02-22T04:15:16;18.63;;;12.20;;
54845;SDS011;53889;50.084;8.646;2023-02-22T04:17:44;20.67;;;11.77;;
54845;SDS011;53889;50.084;8.646;2023-02-22T04:20:13;17.90;;;10.80;;
54845;SDS011;53889;50.084;8.646;2023-02-22T04:22:51;15.00;;;10.30;;
54845;SDS011;53889;50.084;8.646;2023-02-22T04:25:18;18.50;;;11.18;;
54845;SDS011;53889;50.084;8.646;2023-02-22T04:27:46;19.30;;;10.43;;
54845;SDS011;53889;50.084;8.646;2023-02-22T04:30:15;17.23;;;10.88;;
54845;SDS011;53889;50.084;8.646;2023-02-22T04:32:42;15.73;;;10.20;;
54845;SDS011;53889;50.084;8.646;2023-02-22T04:35:10;16.60;;;10.52;;
54845;SDS011;53889;50.084;8.646;2023-02-22T04:37:37;17.10;;;10.88;;
54845;SDS011;53889;50.084;8.646;2023-02-22T04:40:07;16.30;;;10.00;;
54845;SDS011;53889;50.084;8.646;2023-02-22T04:42:36;16.75;;;10.25;;
54845;SDS011;53889;50.084;8.646;2023-02-22T04:45:05;16.20;;;9.60;;
54845;SDS011;53889;50.084;8.646;2023-02-22T04:47:34;18.25;;;10.35;;
54845;SDS011;53889;50.084;8.646;2023-02-22T04:50:02;16.40;;;9.68;;
54845;SDS011;53889;50.084;8.646;2023-02-22T04:52:33;17.27;;;10.65;;
54845;SDS011;53889;50.084;8.646;2023-02-22T04:54:59;17.73;;;11.43;;
54845;SDS011;53889;50.084;8.646;2023-02-22T04:57:28;18.15;;;11.20;;
54845;SDS011;53889;50.084;8.646;2023-02-22T04:59:54;16.52;;;10.20;;
54845;SDS011;53889;50.084;8.646;2023-02-22T05:02:23;17.38;;;10.73;;
54845;SDS011;53889;50.084;8.646;2023-02-22T05:04:50;16.85;;;10.40;;
54845;SDS011;53889;50.084;8.646;2023-02-22T05:07:17;17.50;;;10.55;;
54845;SDS011;53889;50.084;8.646;2023-02-22T05:09:43;20.13;;;12.20;;
54845;SDS011;53889;50.084;8.646;2023-02-22T05:12:10;19.70;;;11.52;;
54845;SDS011;53889;50.084;8.646;2023-02-22T05:14:38;22.48;;;11.38;;
54845;SDS011;53889;50.084;8.646;2023-02-22T05:17:05;18.65;;;10.98;;
54845;SDS011;53889;50.084;8.646;2023-02-22T05:19:32;19.23;;;11.27;;
54845;SDS011;53889;50.084;8.646;2023-02-22T05:21:59;17.50;;;11.10;;
54845;SDS011;53889;50.084;8.646;2023-02-22T05:24:26;19.88;;;11.52;;
54845;SDS011;53889;50.084;8.646;2023-02-22T05:26:53;15.52;;;9.75;;
54845;SDS011;53889;50.084;8.646;2023-02-22T05:29:20;17.90;;;10.98;;
54845;SDS011;53889;50.084;8.646;2023-02-22T05:31:48;18.08;;;11.07;;
54845;SDS011;53889;50.084;8.646;2023-02-22T05:34:15;18.65;;;11.10;;
54845;SDS011;53889;50.084;8.646;2023-02-22T05:36:42;19.30;;;11.85;;
54845;SDS011;53889;50.084;8.646;2023-02-22T05:39:10;18.38;;;11.40;;
54845;SDS011;53889;50.084;8.646;2023-02-22T05:41:37;19.90;;;11.88;;
54845;SDS011;53889;50.084;8.646;2023-02-22T05:44:04;20.58;;;11.63;;
54845;SDS011;53889;50.084;8.646;2023-02-22T05:46:30;21.17;;;11.57;;
54845;SDS011;53889;50.084;8.646;2023-02-22T05:48:58;20.35;;;12.25;;
54845;SDS011;53889;50.084;8.646;2023-02-22T05:51:25;21.50;;;12.23;;
54845;SDS011;53889;50.084;8.646;2023-02-22T05:53:52;18.42;;;10.65;;
54845;SDS011;53889;50.084;8.646;2023-02-22T05:56:21;20.05;;;12.50;;
54845;SDS011;53889;50.084;8.646;2023-02-22T05:58:51;18.77;;;11.13;;
54845;SDS011;53889;50.084;8.646;2023-02-22T06:01:18;17.10;;;11.45;;
54845;SDS011;53889;50.084;8.646;2023-02-22T06:03:47;19.10;;;10.43;;
54845;SDS011;53889;50.084;8.646;2023-02-22T06:06:16;20.35;;;12.40;;
54845;SDS011;53889;50.084;8.646;2023-02-22T06:08:45;20.88;;;12.45;;
54845;SDS011;53889;50.084;8.646;2023-02-22T06:11:12;19.13;;;12.02;;
54845;SDS011;53889;50.084;8.646;2023-02-22T06:13:39;19.30;;;11.43;;
54845;SDS011;53889;50.084;8.646;2023-02-22T06:16:06;23.52;;;12.00;;
54845;SDS011;53889;50.084;8.646;2023-02-22T06:18:33;19.67;;;11.80;;
54845;SDS011;53889;50.084;8.646;2023-02-22T06:21:01;18.73;;;11.38;;
54845;SDS011;53889;50.084;8.646;2023-02-22T06:23:30;20.13;;;11.25;;
54845;SDS011;53889;50.084;8.646;2023-02-22T06:25:57;22.00;;;14.20;;
54845;SDS011;53889;50.084;8.646;2023-02-22T06:28:23;26.88;;;12.60;;
54845;SDS011;53889;50.084;8.646;2023-02-22T06:30:50;20.38;;;12.20;;
54845;SDS011;53889;50.084;8.646;2023-02-22T06:33:17;25.48;;;14.43;;
54845;SDS011;53889;50.084;8.646;2023-02-22T06:35:44;17.92;;;10.65;;
54845;SDS011;53889;50.084;8.646;2023-02-22T06:38:11;20.85;;;11.95;;
54845;SDS011;53889;50.084;8.646;2023-02-22T06:40:46;20.73;;;12.02;;
54845;SDS011;53889;50.084;8.646;2023-02-22T06:43:13;17.75;;;11.27;;
54845;SDS011;53889;50.084;8.646;2023-02-22T06:45:40;20.13;;;11.68;;
54845;SDS011;53889;50.084;8.646;2023-02-22T06:48:06;26.50;;;11.63;;
54845;SDS011;53889;50.084;8.646;2023-02-22T06:50:33;22.63;;;12.32;;
54845;SDS011;53889;50.084;8.646;2023-02-22T06:53:00;20.10;;;11.70;;
54845;SDS011;53889;50.084;8.646;2023-02-22T06:55:28;22.20;;;12.40;;
54845;SDS011;53889;50.084;8.646;2023-02-22T06:57:58;27.85;;;13.00;;
54845;SDS011;53889;50.084;8.646;2023-02-22T07:00:26;25.08;;;12.40;;
54845;SDS011;53889;50.084;8.646;2023-02-22T07:02:54;28.58;;;12.27;;
54845;SDS011;53889;50.084;8.646;2023-02-22T07:05:23;24.25;;;12.27;;
54845;SDS011;53889;50.084;8.646;2023-02-22T07:07:51;170.23;;;20.92;;
54845;SDS011;53889;50.084;8.646;2023-02-22T07:10:21;40.08;;;13.88;;
54845;SDS011;53889;50.084;8.646;2023-02-22T07:12:50;17.45;;;10.48;;
54845;SDS011;53889;50.084;8.646;2023-02-22T07:15:20;23.60;;;11.77;;
54845;SDS011;53889;50.084;8.646;2023-02-22T07:17:48;19.85;;;11.40;;
54845;SDS011;53889;50.084;8.646;2023-02-22T07:20:15;20.45;;;11.57;;
54845;SDS011;53889;50.084;8.646;2023-02-22T07:22:44;19.10;;;11.25;;
54845;SDS011;53889;50.084;8.646;2023-02-22T07:25:11;16.65;;;10.43;;
54845;SDS011;53889;50.084;8.646;2023-02-22T07:27:38;17.80;;;11.30;;
54845;SDS011;53889;50.084;8.646;2023-02-22T07:30:07;20.77;;;11.18;;
54845;SDS011;53889;50.084;8.646;2023-02-22T07:32:42;29.02;;;13.27;;
54845;SDS011;53889;50.084;8.646;2023-02-22T07:35:12;58.28;;;16.05;;
54845;SDS011;53889;50.084;8.646;2023-02-22T07:37:41;50.38;;;15.40;;
54845;SDS011;53889;50.084;8.646;2023-02-22T07:40:08;32.95;;;12.93;;
54845;SDS011;53889;50.084;8.646;2023-02-22T07:42:48;32.10;;;13.10;;
54845;SDS011;53889;50.084;8.646;2023-02-22T07:45:20;25.42;;;12.90;;
54845;SDS011;53889;50.084;8.646;2023-02-22T07:47:49;24.67;;;12.10;;
54845;SDS011;53889;50.084;8.646;2023-02-22T07:50:18;32.05;;;13.73;;
54845;SDS011;53889;50.084;8.646;2023-02-22T07:52:49;25.67;;;12.38;;
54845;SDS011;53889;50.084;8.646;2023-02-22T07:55:20;24.17;;;13.98;;
54845;SDS011;53889;50.084;8.646;2023-02-22T07:57:49;24.67;;;13.23;;
54845;SDS011;53889;50.084;8.646;2023-02-22T08:00:21;20.52;;;12.70;;
54845;SDS011;53889;50.084;8.646;2023-02-22T08:02:50;27.40;;;15.90;;
54845;SDS011;53889;50.084;8.646;2023-02-22T08:05:18;23.25;;;12.95;;
54845;SDS011;53889;50.084;8.646;2023-02-22T08:07:47;22.60;;;12.95;;
54845;SDS011;53889;50.084;8.646;2023-02-22T08:10:15;20.08;;;12.05;;
54845;SDS011;53889;50.084;8.646;2023-02-22T08:12:43;22.30;;;13.27;;
54845;SDS011;53889;50.084;8.646;2023-02-22T08:15:14;19.75;;;12.45;;
54845;SDS011;53889;50.084;8.646;2023-02-22T08:17:42;25.63;;;13.32;;
54845;SDS011;53889;50.084;8.646;2023-02-22T08:20:11;21.85;;;12.35;;
54845;SDS011;53889;50.084;8.646;2023-02-22T08:22:38;20.85;;;12.73;;
54845;SDS011;53889;50.084;8.646;2023-02-22T08:25:08;19.85;;;12.40;;
54845;SDS011;53889;50.084;8.646;2023-02-22T08:27:39;18.65;;;12.27;;
54845;SDS011;53889;50.084;8.646;2023-02-22T08:30:09;24.85;;;14.32;;
54845;SDS011;53889;50.084;8.646;2023-02-22T08:32:39;25.55;;;13.38;;
54845;SDS011;53889;50.084;8.646;2023-02-22T08:35:06;22.98;;;13.00;;
54845;SDS011;53889;50.084;8.646;2023-02-22T08:37:35;25.10;;;14.27;;
54845;SDS011;53889;50.084;8.646;2023-02-22T08:40:02;30.00;;;15.25;;
54845;SDS011;53889;50.084;8.646;2023-02-22T08:42:29;26.92;;;13.95;;
54845;SDS011;53889;50.084;8.646;2023-02-22T08:44:56;27.55;;;15.45;;
54845;SDS011;53889;50.084;8.646;2023-02-22T08:47:24;23.92;;;14.45;;
54845;SDS011;53889;50.084;8.646;2023-02-22T08:49:51;29.05;;;15.77;;
54845;SDS011;53889;50.084;8.646;2023-02-22T08:52:18;25.40;;;14.60;;
54845;SDS011;53889;50.084;8.646;2023-02-22T08:54:46;23.67;;;13.95;;
54845;SDS011;53889;50.084;8.646;2023-02-22T08:57:13;25.65;;;14.57;;
54845;SDS011;53889;50.084;8.646;2023-02-22T08:59:40;28.90;;;15.93;;
54845;SDS011;53889;50.084;8.646;2023-02-22T09:02:12;34.58;;;18.17;;
54845;SDS011;53889;50.084;8.646;2023-02-22T09:04:40;30.98;;;17.38;;
54845;SDS011;53889;50.084;8.646;2023-02-22T09:07:07;31.58;;;17.60;;
54845;SDS011;53889;50.084;8.646;2023-02-22T09:09:34;31.48;;;16.58;;
54845;SDS011;53889;50.084;8.646;2023-02-22T09:12:03;32.30;;;16.80;;
54845;SDS011;53889;50.084;8.646;2023-02-22T09:14:31;31.70;;;16.30;;
54845;SDS011;53889;50.084;8.646;2023-02-22T09:16:58;26.27;;;14.85;;
54845;SDS011;53889;50.084;8.646;2023-02-22T09:19:25;29.02;;;16.88;;
54845;SDS011;53889;50.084;8.646;2023-02-22T09:21:52;27.80;;;15.30;;
54845;SDS011;53889;50.084;8.646;2023-02-22T09:24:20;29.48;;;15.48;;
54845;SDS011;53889;50.084;8.646;2023-02-22T09:26:47;30.35;;;17.25;;
54845;SDS011;53889;50.084;8.646;2023-02-22T09:29:19;25.73;;;15.35;;
54845;SDS011;53889;50.084;8.646;2023-02-22T09:31:48;28.45;;;16.02;;
54845;SDS011;53889;50.084;8.646;2023-02-22T09:34:16;32.60;;;17.45;;
54845;SDS011;53889;50.084;8.646;2023-02-22T09:36:44;36.03;;;19.38;;
54845;SDS011;53889;50.084;8.646;2023-02-22T09:39:12;37.80;;;19.33;;
54845;SDS011;53889;50.084;8.646;2023-02-22T09:41:41;29.42;;;16.15;;
54845;SDS011;53889;50.084;8.646;2023-02-22T09:44:15;29.47;;;18.13;;
54845;SDS011;53889;50.084;8.646;2023-02-22T09:46:49;29.50;;;17.92;;
54845;SDS011;53889;50.084;8.646;2023-02-22T09:49:20;32.30;;;19.58;;
54845;SDS011;53889;50.084;8.646;2023-02-22T09:51:53;28.63;;;17.10;;
54845;SDS011;53889;50.084;8.646;2023-02-22T09:54:25;26.90;;;14.98;;
54845;SDS011;53889;50.084;8.646;2023-02-22T09:56:59;26.58;;;15.55;;
54845;SDS011;53889;50.084;8.646;2023-02-22T09:59:30;25.50;;;15.93;;
54845;SDS011;53889;50.084;8.646;2023-02-22T10:02:02;33.28;;;18.98;;
54845;SDS011;53889;50.084;8.646;2023-02-22T10:04:40;38.78;;;20.35;;
54845;SDS011;53889;50.084;8.646;2023-02-22T10:07:16;34.15;;;19.77;;
54845;SDS011;53889;50.084;8.646;2023-02-22T10:09:50;30.67;;;18.77;;
54845;SDS011;53889;50.084;8.646;2023-02-22T10:12:28;24.23;;;15.45;;
54845;SDS011;53889;50.084;8.646;2023-02-22T10:15:07;25.67;;;16.23;;
54845;SDS011;53889;50.084;8.646;2023-02-22T10:17:56;28.63;;;16.70;;
54845;SDS011;53889;50.084;8.646;2023-02-22T10:20:38;25.77;;;16.45;;
54845;SDS011;53889;50.084;8.646;2023-02-22T10:23:12;22.85;;;15.82;;
54845;SDS011;53889;50.084;8.646;2023-02-22T10:25:47;30.23;;;17.70;;
54845;SDS011;53889;50.084;8.646;2023-02-22T10:28:24;23.17;;;15.35;;
54845;SDS011;53889;50.084;8.646;2023-02-22T10:31:00;22.08;;;14.93;;
54845;SDS011;53889;50.084;8.646;2023-02-22T10:33:37;22.42;;;15.30;;
54845;SDS011;53889;50.084;8.646;2023-02-22T10:36:11;22.52;;;15.00;;
54845;SDS011;53889;50.084;8.646;2023-02-22T10:38:43;25.52;;;16.05;;
54845;SDS011;53889;50.084;8.646;2023-02-22T10:41:20;23.15;;;15.98;;
54845;SDS011;53889;50.084;8.646;2023-02-22T10:43:55;21.35;;;14.65;;
54845;SDS011;53889;50.084;8.646;2023-02-22T10:46:33;21.85;;;14.55;;
54845;SDS011;53889;50.084;8.646;2023-02-22T10:49:07;21.92;;;14.85;;
54845;SDS011;53889;50.084;8.646;2023-02-22T10:51:38;21.50;;;13.95;;
54845;SDS011;53889;50.084;8.646;2023-02-22T10:54:13;20.85;;;13.35;;
54845;SDS011;53889;50.084;8.646;2023-02-22T10:59:26;17.23;;;12.05;;
54845;SDS011;53889;50.084;8.646;2023-02-22T11:01:58;15.55;;;11.20;;
54845;SDS011;53889;50.084;8.646;2023-02-22T11:04:25;16.60;;;11.65;;
54845;SDS011;53889;50.084;8.646;2023-02-22T11:07:06;16.95;;;12.07;;
54845;SDS011;53889;50.084;8.646;2023-02-22T11:09:44;16.30;;;12.13;;
54845;SDS011;53889;50.084;8.646;2023-02-22T11:12:15;16.15;;;13.10;;
54845;SDS011;53889;50.084;8.646;2023-02-22T11:14:44;15.63;;;11.82;;
54845;SDS011;53889;50.084;8.646;2023-02-22T11:17:15;16.42;;;12.07;;
54845;SDS011;53889;50.084;8.646;2023-02-22T11:19:48;16.40;;;11.73;;
54845;SDS011;53889;50.084;8.646;2023-02-22T11:22:19;15.75;;;11.15;;
54845;SDS011;53889;50.084;8.646;2023-02-22T11:24:49;17.27;;;12.48;;
54845;SDS011;53889;50.084;8.646;2023-02-22T11:27:30;16.98;;;12.00;;
54845;SDS011;53889;50.084;8.646;2023-02-22T11:30:11;16.23;;;11.93;;
54845;SDS011;53889;50.084;8.646;2023-02-22T11:32:49;17.33;;;12.70;;
54845;SDS011;53889;50.084;8.646;2023-02-22T11:35:22;17.00;;;13.13;;
54845;SDS011;53889;50.084;8.646;2023-02-22T11:38:09;22.85;;;13.63;;
54845;SDS011;53889;50.084;8.646;2023-02-22T11:40:41;20.40;;;15.35;;
54845;SDS011;53889;50.084;8.646;2023-02-22T11:43:11;18.90;;;13.52;;
54845;SDS011;53889;50.084;8.646;2023-02-22T11:48:29;17.17;;;14.13;;
54845;SDS011;53889;50.084;8.646;2023-02-22T11:54:13;18.77;;;13.80;;
54845;SDS011;53889;50.084;8.646;2023-02-22T11:56:55;16.90;;;13.13;;
54845;SDS011;53889;50.084;8.646;2023-02-22T11:59:32;19.05;;;14.15;;
54845;SDS011;53889;50.084;8.646;2023-02-22T12:04:57;19.17;;;14.40;;
54845;SDS011;53889;50.084;8.646;2023-02-22T12:07:40;20.15;;;14.40;;
54845;SDS011;53889;50.084;8.646;2023-02-22T12:10:25;20.02;;;14.02;;
54845;SDS011;53889;50.084;8.646;2023-02-22T12:13:19;22.58;;;15.18;;
54845;SDS011;53889;50.084;8.646;2023-02-22T12:16:06;21.67;;;15.98;;
54845;SDS011;53889;50.084;8.646;2023-02-22T12:18:46;25.35;;;15.75;;
54845;SDS011;53889;50.084;8.646;2023-02-22T12:21:25;23.20;;;16.77;;
54845;SDS011;53889;50.084;8.646;2023-02-22T12:23:55;22.92;;;16.95;;
54845;SDS011;53889;50.084;8.646;2023-02-22T12:26:29;23.98;;;17.35;;
54845;SDS011;53889;50.084;8.646;2023-02-22T12:29:02;24.60;;;15.88;;
54845;SDS011;53889;50.084;8.646;2023-02-22T12:31:36;21.10;;;14.20;;
54845;SDS011;53889;50.084;8.646;2023-02-22T12:34:11;17.15;;;11.82;;
54845;SDS011;53889;50.084;8.646;2023-02-22T12:36:46;17.40;;;11.70;;
54845;SDS011;53889;50.084;8.646;2023-02-22T12:39:22;20.08;;;13.27;;
54845;SDS011;53889;50.084;8.646;2023-02-22T12:41:54;18.48;;;12.73;;
54845;SDS011;53889;50.084;8.646;2023-02-22T12:44:23;16.40;;;12.15;;
54845;SDS011;53889;50.084;8.646;2023-02-22T12:46:54;16.75;;;11.20;;
54845;SDS011;53889;50.084;8.646;2023-02-22T12:49:25;17.17;;;12.50;;
54845;SDS011;53889;50.084;8.646;2023-02-22T12:52:02;17.08;;;11.95;;
54845;SDS011;53889;50.084;8.646;2023-02-22T12:54:38;20.65;;;12.50;;
54845;SDS011;53889;50.084;8.646;2023-02-22T12:57:13;17.13;;;12.23;;
54845;SDS011;53889;50.084;8.646;2023-02-22T12:59:45;18.23;;;12.30;;
54845;SDS011;53889;50.084;8.646;2023-02-22T13:02:17;18.20;;;11.40;;
54845;SDS011;53889;50.084;8.646;2023-02-22T13:04:48;18.98;;;11.35;;
54845;SDS011;53889;50.084;8.646;2023-02-22T13:07:22;16.10;;;10.77;;
54845;SDS011;53889;50.084;8.646;2023-02-22T13:10:02;22.65;;;11.32;;
54845;SDS011;53889;50.084;8.646;2023-02-22T13:12:47;16.60;;;9.95;;
54845;SDS011;53889;50.084;8.646;2023-02-22T13:15:22;14.52;;;9.52;;
54845;SDS011;53889;50.084;8.646;2023-02-22T13:17:57;12.93;;;8.98;;
54845;SDS011;53889;50.084;8.646;2023-02-22T13:20:36;15.65;;;8.43;;
54845;SDS011;53889;50.084;8.646;2023-02-22T13:23:12;12.68;;;8.77;;
54845;SDS011;53889;50.084;8.646;2023-02-22T13:25:44;11.57;;;7.65;;
54845;SDS011;53889;50.084;8.646;2023-02-22T13:30:50;11.88;;;8.65;;
54845;SDS011;53889;50.084;8.646;2023-02-22T13:33:34;12.82;;;7.80;;
54845;SDS011;53889;50.084;8.646;2023-02-22T13:36:17;13.82;;;8.23;;
54845;SDS011;53889;50.084;8.646;2023-02-22T13:39:13;10.70;;;7.15;;
54845;SDS011;53889;50.084;8.646;2023-02-22T13:42:07;10.63;;;7.43;;
54845;SDS011;53889;50.084;8.646;2023-02-22T13:48:03;12.02;;;8.18;;
54845;SDS011;53889;50.084;8.646;2023-02-22T13:50:51;17.42;;;7.65;;
54845;SDS011;53889;50.084;8.646;2023-02-22T13:53:31;11.77;;;8.32;;
54845;SDS011;53889;50.084;8.646;2023-02-22T13:56:09;11.80;;;8.40;;
54845;SDS011;53889;50.084;8.646;2023-02-22T13:58:45;12.48;;;8.40;;
54845;SDS011;53889;50.084;8.646;2023-02-22T14:04:33;14.15;;;9.73;;
54845;SDS011;53889;50.084;8.646;2023-02-22T14:10:04;14.20;;;9.52;;
54845;SDS011;53889;50.084;8.646;2023-02-22T14:13:03;13.85;;;8.68;;
54845;SDS011;53889;50.084;8.646;2023-02-22T14:15:30;12.57;;;8.25;;
54845;SDS011;53889;50.084;8.646;2023-02-22T14:17:58;12.98;;;8.68;;
54845;SDS011;53889;50.084;8.646;2023-02-22T14:20:26;14.02;;;8.73;;
54845;SDS011;53889;50.084;8.646;2023-02-22T14:22:57;18.60;;;9.77;;
54845;SDS011;53889;50.084;8.646;2023-02-22T14:25:53;12.55;;;9.20;;
54845;SDS011;53889;50.084;8.646;2023-02-22T14:28:49;18.02;;;10.20;;
54845;SDS011;53889;50.084;8.646;2023-02-22T14:31:20;16.02;;;10.13;;
54845;SDS011;53889;50.084;8.646;2023-02-22T14:33:54;19.85;;;10.75;;
54845;SDS011;53889;50.084;8.646;2023-02-22T14:36:25;21.25;;;10.48;;
54845;SDS011;53889;50.084;8.646;2023-02-22T14:38:55;14.98;;;11.32;;
54845;SDS011;53889;50.084;8.646;2023-02-22T14:41:27;15.60;;;10.30;;
54845;SDS011;53889;50.084;8.646;2023-02-22T14:43:58;19.17;;;10.75;;
54845;SDS011;53889;50.084;8.646;2023-02-22T14:46:30;15.23;;;10.13;;
54845;SDS011;53889;50.084;8.646;2023-02-22T14:49:04;18.10;;;11.63;;
54845;SDS011;53889;50.084;8.646;2023-02-22T14:51:37;17.45;;;11.93;;
54845;SDS011;53889;50.084;8.646;2023-02-22T14:54:08;20.95;;;11.80;;
54845;SDS011;53889;50.084;8.646;2023-02-22T14:56:41;18.25;;;11.75;;
54845;SDS011;53889;50.084;8.646;2023-02-22T14:59:15;18.13;;;12.50;;
54845;SDS011;53889;50.084;8.646;2023-02-22T15:01:44;18.83;;;13.40;;
54845;SDS011;53889;50.084;8.646;2023-02-22T15:04:15;22.08;;;12.13;;
54845;SDS011;53889;50.084;8.646;2023-02-22T15:06:43;15.75;;;11.48;;
54845;SDS011;53889;50.084;8.646;2023-02-22T15:09:11;19.10;;;12.55;;
54845;SDS011;53889;50.084;8.646;2023-02-22T15:11:47;20.90;;;13.35;;
54845;SDS011;53889;50.084;8.646;2023-02-22T15:14:18;18.67;;;12.13;;
54845;SDS011;53889;50.084;8.646;2023-02-22T15:16:46;18.05;;;11.93;;